Time;durP1;ratioP1;P1;durP2;ratioP2;P2;SDS_P1;SDS_P2;PMS_P1;PMS_P2;Temp;Humidity;BMP_temperature;BMP_pressure;BME280_temperature;BME280_humidity;BME280_pressure;Samples;Min_cycle;Max_cycle;Signal;HPM_P1;HPM_P2
2023/03/02 00:01:07;;;;;;;139.27;67.30;;;-1.50;99.90;;;;;;10489943;28;20246;-79
2023/03/02 00:06:09;;;;;;;140.07;67.50;;;-1.30;99.90;;;;;;10461587;28;20286;-79
2023/03/02 00:11:14;;;;;;;139.13;66.23;;;-1.40;99.90;;;;;;10478830;28;20295;-79
2023/03/02 00:16:17;;;;;;;125.47;57.27;;;-1.40;99.90;;;;;;10470200;28;20304;-79
2023/03/02 00:21:19;;;;;;;134.87;67.03;;;-1.40;99.90;;;;;;10474743;28;20638;-79
2023/03/02 00:26:22;;;;;;;145.23;68.67;;;-1.40;99.90;;;;;;10467710;28;20230;-79
2023/03/02 00:31:25;;;;;;;151.80;73.03;;;-1.70;99.90;;;;;;10466885;28;20257;-79
2023/03/02 00:36:29;;;;;;;154.40;71.87;;;-1.70;99.90;;;;;;10465695;28;20223;-79
2023/03/02 00:41:31;;;;;;;160.80;74.23;;;-1.70;99.90;;;;;;10469098;28;20230;-79
2023/03/02 00:46:34;;;;;;;123.77;62.97;;;-1.60;99.90;;;;;;10471399;28;20684;-79
2023/03/02 00:51:37;;;;;;;144.67;72.53;;;-1.50;99.90;;;;;;10474076;28;20720;-78
2023/03/02 00:56:40;;;;;;;151.50;72.63;;;-1.50;99.90;;;;;;10472360;28;20231;-78
2023/03/02 01:01:43;;;;;;;140.60;69.23;;;-1.60;99.90;;;;;;10476157;28;20238;-79
2023/03/02 01:06:46;;;;;;;138.60;69.90;;;-1.80;99.90;;;;;;10475886;28;20768;-79
2023/03/02 01:11:49;;;;;;;107.47;59.07;;;-1.90;99.90;;;;;;10494626;28;20244;-78
2023/03/02 01:16:52;;;;;;;138.73;70.90;;;-1.70;99.90;;;;;;10493940;28;20207;-79
2023/03/02 01:21:55;;;;;;;147.23;72.33;;;-1.70;99.90;;;;;;10492441;28;20236;-79
2023/03/02 01:26:58;;;;;;;136.40;65.20;;;-1.90;99.90;;;;;;10492970;28;20230;-79
2023/03/02 01:32:01;;;;;;;136.93;69.23;;;-1.70;99.90;;;;;;10493148;28;20266;-79
2023/03/02 01:37:04;;;;;;;139.27;66.97;;;-1.70;99.90;;;;;;10492872;28;20286;-79
2023/03/02 01:42:06;;;;;;;137.03;69.90;;;-1.80;99.90;;;;;;10491823;28;21019;-79
2023/03/02 01:47:15;;;;;;;141.70;69.80;;;-2.00;99.90;;;;;;10491010;28;20230;-79
2023/03/02 01:52:26;;;;;;;114.47;56.87;;;-2.20;99.90;;;;;;10492085;28;20253;-79
2023/03/02 01:57:33;;;;;;;112.80;60.23;;;-2.10;99.90;;;;;;10492122;28;20203;-78
2023/03/02 02:02:36;;;;;;;116.03;58.90;;;-1.60;99.90;;;;;;10490333;28;20237;-78
2023/03/02 02:07:39;;;;;;;84.00;43.93;;;-1.70;99.90;;;;;;10490993;28;20616;-79
2023/03/02 02:12:42;;;;;;;107.80;50.60;;;-1.90;99.90;;;;;;10491632;28;20265;-79
2023/03/02 02:17:45;;;;;;;97.43;49.13;;;-1.80;99.90;;;;;;10491150;28;20237;-79
2023/03/02 02:23:09;;;;;;;109.87;52.80;;;-2.00;99.90;;;;;;10491367;28;20225;-79
2023/03/02 02:28:27;;;;;;;106.93;57.33;;;-1.80;99.90;;;;;;10490721;28;20295;-79
2023/03/02 02:33:31;;;;;;;99.10;54.47;;;-1.70;99.90;;;;;;10490351;28;20645;-79
2023/03/02 02:38:36;;;;;;;84.30;44.80;;;-1.80;99.90;;;;;;10472739;28;20228;-78
2023/03/02 02:43:38;;;;;;;82.00;42.87;;;-2.00;99.90;;;;;;10490533;28;20237;-79
2023/03/02 02:48:41;;;;;;;74.70;39.23;;;-1.90;99.90;;;;;;10488347;28;20249;-79
2023/03/02 02:53:47;;;;;;;72.80;41.53;;;-2.00;99.90;;;;;;10491635;28;20302;-79
2023/03/02 02:58:54;;;;;;;61.27;35.70;;;-2.00;99.90;;;;;;10489575;28;20252;-79
2023/03/02 03:04:02;;;;;;;63.53;34.03;;;-1.90;99.90;;;;;;10488025;28;20202;-79
2023/03/02 03:09:07;;;;;;;53.63;33.07;;;-1.50;99.90;;;;;;10489592;28;20218;-79
2023/03/02 03:14:18;;;;;;;54.53;31.43;;;-0.90;99.90;;;;;;10489446;28;20338;-79
2023/03/02 03:19:31;;;;;;;59.83;33.03;;;-0.60;99.90;;;;;;10488872;28;20262;-79
2023/03/02 03:24:34;;;;;;;56.53;28.20;;;0.00;99.90;;;;;;10489350;28;20222;-79
2023/03/02 03:29:43;;;;;;;40.70;23.10;;;1.00;99.90;;;;;;10488839;28;20334;-78
2023/03/02 03:34:48;;;;;;;48.03;26.03;;;1.70;99.90;;;;;;10488645;28;20686;-79
2023/03/02 03:39:59;;;;;;;52.30;28.43;;;1.80;99.90;;;;;;10488580;28;20582;-79
2023/03/02 03:45:05;;;;;;;41.27;23.67;;;1.40;99.90;;;;;;10487263;28;20674;-79
2023/03/02 03:50:08;;;;;;;36.67;21.70;;;2.10;99.90;;;;;;10489941;28;20249;-79
2023/03/02 03:55:12;;;;;;;50.43;24.47;;;2.80;99.90;;;;;;10487406;28;20241;-79
2023/03/02 04:00:17;;;;;;;47.20;22.23;;;2.80;99.90;;;;;;10454179;28;20238;-78
2023/03/02 04:05:32;;;;;;;46.40;24.07;;;2.70;99.90;;;;;;10474176;28;20716;-79
2023/03/02 04:10:37;;;;;;;37.70;23.07;;;2.30;99.90;;;;;;10489004;28;20663;-78
2023/03/02 04:15:41;;;;;;;32.80;18.63;;;1.80;99.90;;;;;;10492623;28;20227;-79
2023/03/02 04:20:43;;;;;;;29.63;17.80;;;1.60;99.90;;;;;;10495874;28;20281;-78
2023/03/02 04:25:47;;;;;;;32.50;19.67;;;2.20;99.90;;;;;;10494874;28;20245;-79
2023/03/02 04:30:54;;;;;;;30.57;18.03;;;2.10;99.90;;;;;;10495563;28;20318;-78
2023/03/02 04:35:57;;;;;;;24.77;17.03;;;3.00;99.90;;;;;;10494852;28;20207;-79
2023/03/02 04:41:00;;;;;;;26.67;18.07;;;3.40;99.90;;;;;;10494523;28;20243;-79
2023/03/02 04:46:03;;;;;;;28.00;16.53;;;2.40;99.90;;;;;;10495806;28;20599;-79
2023/03/02 04:51:06;;;;;;;28.97;17.37;;;2.60;99.90;;;;;;10495482;28;20259;-79
2023/03/02 04:56:08;;;;;;;30.77;17.67;;;2.20;99.90;;;;;;10495075;28;20233;-78
2023/03/02 05:01:13;;;;;;;28.90;16.43;;;1.90;99.90;;;;;;10478208;28;20237;-78
2023/03/02 05:06:15;;;;;;;27.13;15.97;;;2.20;99.90;;;;;;10495575;28;20302;-79
2023/03/02 05:11:22;;;;;;;25.23;16.27;;;2.90;99.90;;;;;;10494849;28;20636;-79
2023/03/02 05:16:27;;;;;;;26.10;17.23;;;2.80;99.90;;;;;;10493697;28;20622;-79
2023/03/02 05:21:30;;;;;;;28.03;17.70;;;2.60;99.90;;;;;;10494519;28;20232;-79
2023/03/02 05:26:33;;;;;;;30.60;17.83;;;1.90;99.90;;;;;;10494644;28;20299;-79
2023/03/02 05:31:39;;;;;;;31.63;16.63;;;2.00;99.90;;;;;;10491821;28;20680;-79
2023/03/02 05:36:44;;;;;;;27.20;15.30;;;1.50;99.90;;;;;;10493415;28;20654;-79
2023/03/02 05:41:47;;;;;;;34.00;15.93;;;1.30;99.90;;;;;;10492261;28;20241;-79
2023/03/02 05:46:49;;;;;;;25.80;15.53;;;1.20;99.90;;;;;;10493041;28;20226;-79
2023/03/02 05:51:52;;;;;;;23.27;14.47;;;1.30;99.90;;;;;;10493645;28;20249;-79
2023/03/02 05:56:55;;;;;;;30.00;15.73;;;2.00;99.90;;;;;;10490896;28;20736;-79
2023/03/02 06:01:58;;;;;;;25.53;15.47;;;2.00;99.90;;;;;;10492133;28;20237;-79
2023/03/02 06:07:00;;;;;;;28.80;15.23;;;2.00;99.90;;;;;;10491121;28;20726;-79
2023/03/02 06:12:04;;;;;;;28.93;14.83;;;2.20;99.90;;;;;;10491395;28;20261;-79
2023/03/02 06:17:06;;;;;;;29.63;17.10;;;2.00;99.90;;;;;;10491783;28;20663;-80
2023/03/02 06:22:09;;;;;;;26.17;16.50;;;2.30;99.90;;;;;;10490989;28;20299;-79
2023/03/02 06:27:12;;;;;;;30.70;15.53;;;2.10;99.90;;;;;;10491751;28;20241;-79
2023/03/02 06:32:14;;;;;;;25.67;15.23;;;2.00;99.90;;;;;;10492752;28;20269;-78
2023/03/02 06:37:17;;;;;;;31.77;17.67;;;1.90;99.90;;;;;;10489706;28;20287;-79
2023/03/02 06:42:20;;;;;;;37.33;17.87;;;1.90;99.90;;;;;;10492753;28;20299;-79
2023/03/02 06:47:23;;;;;;;24.70;16.60;;;1.10;99.90;;;;;;10490641;28;20209;-87
2023/03/02 06:52:26;;;;;;;24.20;15.30;;;2.40;99.90;;;;;;10489692;28;20255;-82
2023/03/02 06:57:32;;;;;;;31.07;17.60;;;5.00;99.90;;;;;;10481495;28;20245;-81
2023/03/02 07:02:36;;;;;;;29.53;17.83;;;4.40;99.90;;;;;;10460170;28;20282;-82
2023/03/02 07:07:40;;;;;;;30.47;17.43;;;3.50;99.90;;;;;;10488283;28;20236;-82
2023/03/02 07:12:43;;;;;;;36.00;18.53;;;3.20;99.90;;;;;;10471976;28;20639;-81
2023/03/02 07:17:45;;;;;;;31.00;19.47;;;3.00;99.90;;;;;;10475705;28;20246;-81
2023/03/02 07:22:48;;;;;;;32.73;18.87;;;2.60;99.90;;;;;;10489967;28;20218;-83
2023/03/02 07:27:51;;;;;;;36.40;16.60;;;2.70;99.90;;;;;;10496620;28;20285;-81
2023/03/02 07:32:53;;;;;;;30.60;18.00;;;2.60;99.90;;;;;;10475433;28;20229;-81
2023/03/02 07:37:56;;;;;;;27.20;16.37;;;2.60;99.90;;;;;;10455077;28;20616;-81
2023/03/02 07:42:58;;;;;;;30.23;16.00;;;2.60;99.90;;;;;;10454600;28;20206;-81
2023/03/02 07:48:01;;;;;;;26.10;14.30;;;2.70;99.90;;;;;;10469436;28;20217;-81
2023/03/02 07:53:04;;;;;;;26.27;12.97;;;2.70;99.90;;;;;;10502196;28;20224;-82
2023/03/02 07:58:07;;;;;;;23.73;13.33;;;3.00;99.90;;;;;;10503947;28;20205;-82
2023/03/02 08:03:09;;;;;;;22.17;11.60;;;3.30;99.90;;;;;;10503924;28;20623;-81
2023/03/02 08:08:12;;;;;;;26.93;13.17;;;3.30;99.90;;;;;;10484670;28;20225;-81
2023/03/02 08:13:17;;;;;;;22.77;12.27;;;3.60;99.90;;;;;;10487780;28;20244;-81
2023/03/02 08:18:20;;;;;;;25.83;14.17;;;3.60;99.90;;;;;;10494956;28;20206;-81
2023/03/02 08:23:23;;;;;;;23.50;12.73;;;3.60;99.90;;;;;;10501145;28;20231;-82
2023/03/02 08:28:26;;;;;;;25.40;13.23;;;3.60;99.90;;;;;;10502002;28;20261;-81
2023/03/02 08:33:29;;;;;;;30.47;13.90;;;4.00;99.90;;;;;;10507339;28;20236;-81
2023/03/02 08:38:34;;;;;;;23.73;12.77;;;3.90;99.90;;;;;;10541447;28;20185;-82
2023/03/02 08:43:37;;;;;;;26.77;13.97;;;4.40;99.90;;;;;;10509269;28;20264;-82
2023/03/02 08:48:40;;;;;;;20.07;11.57;;;4.40;99.90;;;;;;10500647;28;20216;-81
2023/03/02 08:53:45;;;;;;;20.33;11.10;;;5.30;99.90;;;;;;10529489;28;20221;-82
2023/03/02 08:58:48;;;;;;;20.00;10.37;;;5.80;99.90;;;;;;10541757;28;20202;-81
2023/03/02 09:03:51;;;;;;;13.83;8.37;;;5.60;99.90;;;;;;10502037;28;20205;-81
2023/03/02 09:08:54;;;;;;;22.03;11.73;;;5.80;99.90;;;;;;10504743;28;20649;-83
2023/03/02 09:13:57;;;;;;;18.03;8.83;;;5.50;99.90;;;;;;10504419;28;20628;-81
2023/03/02 09:19:00;;;;;;;20.50;10.40;;;5.20;99.90;;;;;;10500856;28;20266;-81
2023/03/02 09:24:02;;;;;;;16.30;9.47;;;5.20;99.90;;;;;;10502232;28;20217;-81
2023/03/02 09:29:06;;;;;;;16.83;10.10;;;4.80;99.90;;;;;;10499911;28;20601;-81
2023/03/02 09:34:08;;;;;;;18.37;10.40;;;5.70;99.90;;;;;;10517774;28;20653;-80
2023/03/02 09:39:11;;;;;;;18.07;11.43;;;5.50;99.90;;;;;;10530159;28;20248;-80
2023/03/02 09:44:35;;;;;;;19.77;12.27;;;5.00;99.90;;;;;;10506989;28;20224;-81
2023/03/02 09:50:04;;;;;;;22.67;12.67;;;3.70;99.90;;;;;;10482574;28;20202;-80
2023/03/02 09:55:18;;;;;;;16.10;9.73;;;4.00;99.90;;;;;;10484604;28;20269;-81
2023/03/02 10:00:39;;;;;;;18.70;10.63;;;4.40;99.90;;;;;;10483692;28;20188;-81
2023/03/02 10:06:01;;;;;;;21.43;11.67;;;5.20;99.90;;;;;;10482517;28;20536;-80
2023/03/02 10:11:16;;;;;;;21.70;12.27;;;5.30;99.90;;;;;;10486333;28;20235;-81
2023/03/02 10:16:38;;;;;;;18.70;10.40;;;4.90;99.90;;;;;;10495403;28;20273;-81
2023/03/02 10:21:46;;;;;;;18.37;10.70;;;4.80;99.90;;;;;;10495851;28;20205;-81
2023/03/02 10:26:53;;;;;;;22.20;12.27;;;4.80;99.90;;;;;;10495360;28;20574;-80
2023/03/02 10:32:12;;;;;;;24.03;12.47;;;5.40;99.90;;;;;;10496344;28;20238;-80
2023/03/02 10:37:27;;;;;;;18.30;10.93;;;5.50;99.90;;;;;;10510586;28;20237;-81
2023/03/02 10:42:35;;;;;;;19.87;11.83;;;5.90;99.90;;;;;;10493100;28;20206;-80
2023/03/02 10:47:38;;;;;;;18.60;10.73;;;5.50;99.90;;;;;;10458086;28;20239;-80
2023/03/02 10:52:49;;;;;;;18.47;9.27;;;5.60;99.90;;;;;;10452793;28;20857;-80
2023/03/02 10:58:17;;;;;;;17.80;10.87;;;5.30;99.90;;;;;;10454499;28;20275;-82
2023/03/02 11:03:21;;;;;;;19.13;10.70;;;5.40;99.90;;;;;;10485319;28;20217;-80
2023/03/02 11:08:26;;;;;;;21.77;12.87;;;5.40;99.90;;;;;;10494810;28;20346;-80
2023/03/02 11:13:35;;;;;;;19.50;11.40;;;5.10;99.90;;;;;;10493076;28;20226;-80
2023/03/02 11:18:43;;;;;;;21.77;12.13;;;5.20;99.90;;;;;;10493220;28;20227;-80
2023/03/02 11:24:17;;;;;;;21.20;11.90;;;5.30;99.90;;;;;;10469535;28;20241;-80
2023/03/02 11:29:28;;;;;;;25.33;14.13;;;5.10;99.90;;;;;;10469169;28;20283;-80
2023/03/02 11:34:48;;;;;;;21.87;11.70;;;4.50;99.90;;;;;;10471597;28;20733;-79
2023/03/02 11:40:04;;;;;;;22.60;13.67;;;4.40;99.90;;;;;;10493755;28;20204;-80
2023/03/02 11:45:12;;;;;;;21.60;12.57;;;4.60;99.90;;;;;;10492376;28;20251;-81
2023/03/02 11:50:15;;;;;;;22.47;12.90;;;5.00;99.90;;;;;;10490305;28;20208;-80
2023/03/02 11:55:21;;;;;;;22.83;14.23;;;4.90;99.90;;;;;;10500330;28;20236;-80
2023/03/02 12:00:32;;;;;;;19.93;11.53;;;4.40;99.90;;;;;;10491306;28;20230;-80
2023/03/02 12:05:38;;;;;;;14.07;8.10;;;4.10;99.90;;;;;;10484378;28;20250;-81
2023/03/02 12:10:59;;;;;;;16.27;9.53;;;4.60;99.90;;;;;;10448985;28;20249;-80
2023/03/02 12:16:21;;;;;;;21.37;11.43;;;5.60;99.90;;;;;;10481473;28;20333;-81
2023/03/02 12:21:24;;;;;;;20.47;11.63;;;5.00;99.90;;;;;;10489934;28;20290;-81
2023/03/02 12:26:33;;;;;;;12.67;8.47;;;5.00;99.90;;;;;;10495353;28;20227;-90
2023/03/02 12:31:45;;;;;;;19.87;11.77;;;6.80;99.90;;;;;;10500241;28;20233;-89
2023/03/02 12:36:48;;;;;;;15.97;10.10;;;6.90;99.90;;;;;;10505752;28;20188;-88
2023/03/02 12:42:10;;;;;;;17.77;10.80;;;7.00;99.40;;;;;;10508223;28;20193;-88
2023/03/02 12:47:20;;;;;;;19.37;10.97;;;6.30;99.50;;;;;;10501404;28;20201;-89
2023/03/02 12:52:27;;;;;;;22.97;12.63;;;6.00;99.90;;;;;;10508743;28;20243;-89
2023/03/02 12:57:31;;;;;;;19.23;12.50;;;5.80;99.90;;;;;;10508849;28;20572;-89
2023/03/02 13:02:35;;;;;;;17.63;9.87;;;5.40;99.90;;;;;;10509089;28;20228;-90
2023/03/02 13:07:44;;;;;;;19.70;12.97;;;5.40;99.90;;;;;;10508233;28;20205;-90
2023/03/02 13:12:47;;;;;;;17.17;9.90;;;5.50;99.90;;;;;;10500503;28;20262;-90
2023/03/02 13:17:58;;;;;;;19.90;10.03;;;5.30;99.90;;;;;;10501817;28;20235;-90
2023/03/02 13:23:02;;;;;;;17.23;11.17;;;5.20;99.90;;;;;;10506193;28;20251;-90
2023/03/02 13:28:08;;;;;;;18.90;11.40;;;4.70;99.90;;;;;;10516221;28;20267;-90
2023/03/02 13:33:21;;;;;;;13.43;8.93;;;5.20;99.90;;;;;;10496203;28;20253;-89
2023/03/02 13:38:30;;;;;;;17.10;9.83;;;5.20;99.90;;;;;;10495656;28;20270;-89
2023/03/02 13:43:38;;;;;;;18.17;10.20;;;4.60;99.90;;;;;;10494961;28;20301;-90
2023/03/02 13:48:40;;;;;;;16.03;9.07;;;4.90;99.90;;;;;;10480673;28;20200;-89
2023/03/02 13:54:14;;;;;;;16.00;9.33;;;4.80;99.90;;;;;;10478583;28;20282;-89
2023/03/02 13:59:19;;;;;;;19.73;11.70;;;5.50;99.90;;;;;;10476387;28;20213;-90
2023/03/02 14:04:23;;;;;;;18.60;10.10;;;5.80;99.90;;;;;;10479377;28;20257;-90
2023/03/02 14:09:26;;;;;;;16.00;10.53;;;5.20;99.90;;;;;;10472708;28;20231;-89
2023/03/02 14:14:33;;;;;;;14.27;9.63;;;5.00;99.90;;;;;;10477774;28;20245;-89
2023/03/02 14:19:35;;;;;;;21.33;11.80;;;5.10;99.90;;;;;;10507742;28;20234;-90
2023/03/02 14:24:38;;;;;;;25.03;14.60;;;5.40;99.90;;;;;;10490117;28;20248;-89
2023/03/02 14:29:43;;;;;;;23.00;12.70;;;5.30;99.90;;;;;;10491513;28;20268;-91
2023/03/02 14:34:45;;;;;;;21.23;12.90;;;4.90;99.90;;;;;;10490588;28;20279;-90
2023/03/02 14:39:50;;;;;;;22.63;13.13;;;4.50;99.90;;;;;;10487462;28;20305;-90
2023/03/02 14:44:55;;;;;;;13.83;9.30;;;4.60;99.90;;;;;;10474449;28;20313;-91
2023/03/02 14:49:58;;;;;;;17.23;10.63;;;4.70;99.90;;;;;;10490291;28;20299;-91
2023/03/02 14:55:04;;;;;;;21.33;12.07;;;4.60;99.90;;;;;;10490112;28;20291;-90
2023/03/02 15:00:11;;;;;;;21.20;12.60;;;4.60;99.90;;;;;;10489400;28;20226;-91
2023/03/02 15:05:14;;;;;;;17.87;10.97;;;4.70;99.90;;;;;;10505241;28;20307;-90
2023/03/02 15:10:20;;;;;;;23.60;13.47;;;4.40;99.90;;;;;;10487569;28;20314;-91
2023/03/02 15:15:23;;;;;;;32.80;15.03;;;4.20;99.90;;;;;;10489809;28;20266;-90
2023/03/02 15:20:27;;;;;;;15.40;10.10;;;4.10;99.90;;;;;;10488527;28;20233;-90
2023/03/02 15:25:30;;;;;;;17.57;11.00;;;3.90;99.90;;;;;;10491119;28;20244;-90
2023/03/02 15:30:32;;;;;;;20.97;11.90;;;3.90;99.90;;;;;;10490622;28;20992;-90
2023/03/02 15:35:38;;;;;;;9.93;6.60;;;4.10;99.90;;;;;;10490292;28;20280;-88
2023/03/02 15:40:40;;;;;;;8.43;5.73;;;4.80;99.90;;;;;;10487502;28;20248;-89
2023/03/02 15:45:45;;;;;;;13.43;8.90;;;6.00;99.90;;;;;;10489488;28;20685;-89
2023/03/02 15:51:01;;;;;;;20.57;11.97;;;7.60;99.90;;;;;;10489932;28;20302;-90
2023/03/02 15:56:05;;;;;;;21.73;11.03;;;6.70;98.10;;;;;;10488119;28;20281;-89
2023/03/02 16:01:10;;;;;;;19.00;11.63;;;4.90;99.90;;;;;;10490047;28;20284;-88
2023/03/02 16:06:14;;;;;;;18.43;11.57;;;4.00;99.90;;;;;;10489603;28;20311;-90
2023/03/02 16:11:21;;;;;;;17.40;11.80;;;4.10;99.90;;;;;;10493437;28;20266;-90
2023/03/02 16:16:25;;;;;;;28.47;16.97;;;3.90;99.90;;;;;;10495188;28;20267;-90
2023/03/02 16:21:28;;;;;;;32.33;19.53;;;3.70;99.90;;;;;;10497328;28;20237;-91
2023/03/02 16:26:33;;;;;;;24.37;16.87;;;3.60;99.90;;;;;;10493610;28;20249;-91
2023/03/02 16:31:37;;;;;;;34.57;21.27;;;3.30;99.90;;;;;;10493162;28;20258;-90
2023/03/02 16:36:41;;;;;;;23.80;13.30;;;3.30;99.90;;;;;;10494154;28;20298;-91
2023/03/02 16:41:45;;;;;;;20.40;13.80;;;3.10;99.90;;;;;;10491627;28;20233;-88
2023/03/02 16:46:47;;;;;;;19.63;14.03;;;3.40;99.90;;;;;;10502177;28;20232;-88
2023/03/02 16:51:58;;;;;;;16.20;11.27;;;3.10;99.90;;;;;;10520706;28;20621;-88
2023/03/02 16:57:00;;;;;;;45.60;22.13;;;3.10;99.90;;;;;;10507231;28;20309;-88
2023/03/02 17:02:03;;;;;;;48.07;23.20;;;2.90;99.90;;;;;;10506596;28;20228;-89
2023/03/02 17:07:06;;;;;;;18.50;11.70;;;2.80;99.90;;;;;;10491257;28;20284;-89
2023/03/02 17:12:08;;;;;;;23.50;12.67;;;2.80;99.90;;;;;;10493805;28;20234;-89
2023/03/02 17:17:11;;;;;;;17.40;11.43;;;3.50;99.90;;;;;;10493341;28;20727;-89
2023/03/02 17:22:13;;;;;;;16.53;12.10;;;3.60;99.90;;;;;;10493780;28;20234;-89
2023/03/02 17:27:16;;;;;;;17.60;12.17;;;3.40;99.90;;;;;;10493085;28;20241;-89
2023/03/02 17:32:27;;;;;;;18.97;12.40;;;4.30;99.90;;;;;;10493692;28;20240;-89
2023/03/02 17:37:29;;;;;;;15.63;11.30;;;4.20;99.90;;;;;;10493814;28;20329;-88
2023/03/02 17:42:32;;;;;;;19.50;12.30;;;4.70;99.90;;;;;;10494047;28;20224;-89
2023/03/02 17:47:35;;;;;;;22.23;13.97;;;4.30;99.90;;;;;;10508559;28;20248;-88
2023/03/02 17:52:37;;;;;;;25.27;14.50;;;4.40;99.90;;;;;;10506368;28;20263;-88
2023/03/02 17:57:40;;;;;;;18.83;11.30;;;4.10;99.90;;;;;;10493637;28;20268;-89
2023/03/02 18:02:43;;;;;;;15.90;10.60;;;3.90;99.90;;;;;;10493250;28;20225;-90
2023/03/02 18:07:45;;;;;;;25.73;16.80;;;4.40;99.90;;;;;;10493163;28;20264;-88
2023/03/02 18:12:49;;;;;;;30.13;18.53;;;4.30;99.90;;;;;;10490704;28;20755;-90
2023/03/02 18:17:54;;;;;;;29.90;18.37;;;3.50;99.90;;;;;;10460715;28;20262;-90
2023/03/02 18:22:57;;;;;;;22.70;14.93;;;2.90;99.90;;;;;;10492212;28;20234;-91
2023/03/02 18:28:00;;;;;;;27.43;17.70;;;2.30;99.90;;;;;;10488393;28;20307;-90
2023/03/02 18:33:02;;;;;;;27.50;18.80;;;2.10;99.90;;;;;;10487004;28;20657;-90
2023/03/02 18:38:05;;;;;;;32.90;22.83;;;1.90;99.90;;;;;;10491830;28;20257;-90
2023/03/02 18:43:08;;;;;;;33.83;21.13;;;1.60;99.90;;;;;;10484737;28;20623;-91
2023/03/02 18:48:10;;;;;;;32.87;20.17;;;1.60;99.90;;;;;;10482733;28;20675;-90
2023/03/02 18:53:14;;;;;;;26.70;18.13;;;;;;;;;;10481930;28;20233;-90
2023/03/02 18:58:19;;;;;;;25.90;16.43;;;1.10;99.90;;;;;;10496652;28;20279;-91
2023/03/02 19:03:23;;;;;;;28.93;17.97;;;1.20;99.90;;;;;;10486257;28;20206;-90
2023/03/02 19:08:27;;;;;;;180.67;99.13;;;1.20;99.90;;;;;;10491055;28;20237;-90
2023/03/02 19:13:30;;;;;;;36.13;22.77;;;1.20;99.90;;;;;;10489539;28;20229;-90
2023/03/02 19:18:33;;;;;;;35.77;21.90;;;1.10;99.90;;;;;;10489548;28;20747;-91
2023/03/02 19:23:35;;;;;;;41.63;23.70;;;1.10;99.90;;;;;;10488071;28;20296;-91
2023/03/02 19:28:38;;;;;;;48.93;27.70;;;1.10;99.90;;;;;;10489392;28;20285;-90
2023/03/02 19:33:41;;;;;;;46.67;27.93;;;1.00;99.90;;;;;;10489418;28;20248;-93
2023/03/02 19:38:44;;;;;;;88.40;52.67;;;1.00;99.90;;;;;;10489744;28;20311;-88
2023/03/02 19:43:47;;;;;;;40.80;26.63;;;1.10;99.90;;;;;;10490253;28;20295;-89
2023/03/02 19:48:50;;;;;;;43.30;25.00;;;1.50;99.90;;;;;;10495760;28;20244;-88
2023/03/02 19:53:53;;;;;;;41.97;22.17;;;1.90;99.90;;;;;;10496586;28;20252;-88
2023/03/02 19:58:56;;;;;;;50.63;28.40;;;2.40;99.90;;;;;;10480195;28;20578;-88
2023/03/02 20:03:59;;;;;;;120.67;45.43;;;2.30;99.90;;;;;;10487500;28;20263;-88
2023/03/02 20:09:05;;;;;;;62.47;34.53;;;2.00;99.90;;;;;;10481870;28;20299;-88
2023/03/02 20:14:08;;;;;;;41.47;25.67;;;1.80;99.90;;;;;;10496132;28;20255;-88
2023/03/02 20:19:10;;;;;;;70.87;35.23;;;2.00;99.90;;;;;;10493338;28;20226;-88
2023/03/02 20:24:15;;;;;;;58.27;33.17;;;1.90;99.90;;;;;;10485719;28;20713;-88
2023/03/02 20:29:18;;;;;;;47.67;27.37;;;2.20;99.90;;;;;;10493880;28;20283;-88
2023/03/02 20:34:21;;;;;;;40.43;24.57;;;1.90;99.90;;;;;;10494534;28;20280;-88
2023/03/02 20:39:28;;;;;;;102.90;40.43;;;2.00;99.90;;;;;;10493446;28;20306;-87
2023/03/02 20:44:31;;;;;;;29.60;18.53;;;2.10;99.90;;;;;;10495804;28;20236;-87
2023/03/02 20:49:35;;;;;;;49.30;27.90;;;2.60;99.90;;;;;;10493274;28;20237;-87
2023/03/02 20:54:41;;;;;;;39.27;24.30;;;3.30;99.90;;;;;;10491005;28;20261;-87
2023/03/02 20:59:44;;;;;;;43.17;25.53;;;4.40;99.90;;;;;;10490698;28;20229;-87
2023/03/02 21:04:47;;;;;;;90.37;57.10;;;4.40;99.90;;;;;;10493814;28;20233;-87
2023/03/02 21:09:50;;;;;;;38.93;22.37;;;3.80;99.90;;;;;;10495528;28;20241;-87
2023/03/02 21:14:53;;;;;;;38.90;23.83;;;4.60;99.90;;;;;;10491362;28;20785;-87
2023/03/02 21:19:56;;;;;;;75.83;42.17;;;4.30;99.90;;;;;;10475950;28;20229;-89
2023/03/02 21:24:58;;;;;;;57.63;33.07;;;4.10;99.90;;;;;;10474004;28;20203;-87
2023/03/02 21:30:04;;;;;;;57.73;30.97;;;3.00;99.90;;;;;;10494972;28;20319;-88
2023/03/02 21:35:08;;;;;;;57.13;31.20;;;2.60;99.90;;;;;;10494317;28;20260;-88
2023/03/02 21:40:15;;;;;;;48.80;29.47;;;2.10;99.90;;;;;;10492832;28;20232;-89
2023/03/02 21:45:18;;;;;;;42.27;23.13;;;2.00;99.90;;;;;;10491723;28;20239;-89
2023/03/02 21:50:25;;;;;;;54.80;29.50;;;2.00;99.90;;;;;;10493444;28;20697;-87
2023/03/02 21:55:29;;;;;;;53.83;27.73;;;3.00;99.90;;;;;;10491677;28;20716;-88
2023/03/02 22:00:35;;;;;;;52.37;30.40;;;3.00;99.90;;;;;;10501592;28;20244;-88
2023/03/02 22:05:38;;;;;;;45.43;25.30;;;2.80;99.90;;;;;;10492585;28;20236;-88
2023/03/02 22:10:44;;;;;;;57.27;30.67;;;2.40;99.90;;;;;;10488220;28;20735;-89
2023/03/02 22:15:48;;;;;;;55.63;28.70;;;2.80;99.90;;;;;;10491469;28;20249;-88
2023/03/02 22:20:50;;;;;;;35.07;20.40;;;2.70;99.90;;;;;;10493004;28;20619;-89
2023/03/02 22:25:59;;;;;;;53.13;27.63;;;2.70;99.90;;;;;;10490189;28;20291;-88
2023/03/02 22:31:15;;;;;;;62.53;33.07;;;2.50;99.90;;;;;;10487633;28;20276;-88
2023/03/02 22:36:21;;;;;;;57.53;30.10;;;2.20;99.90;;;;;;10450617;28;20724;-88
2023/03/02 22:41:24;;;;;;;47.33;24.93;;;1.70;99.90;;;;;;10490099;28;20614;-88
2023/03/02 22:46:26;;;;;;;28.40;14.00;;;3.50;99.90;;;;;;10491713;28;20294;-88
2023/03/02 22:51:29;;;;;;;42.60;22.07;;;4.50;99.90;;;;;;10490873;28;20285;-88
2023/03/02 22:56:37;;;;;;;36.60;21.20;;;;;;;;;;10490317;28;20696;-88
2023/03/02 23:01:42;;;;;;;41.47;20.57;;;6.00;99.90;;;;;;10489930;28;20276;-88
2023/03/02 23:06:54;;;;;;;59.73;31.00;;;6.30;99.90;;;;;;10490352;28;20279;-88
2023/03/02 23:12:08;;;;;;;24.40;15.07;;;5.60;99.90;;;;;;10487851;28;20752;-88
2023/03/02 23:17:17;;;;;;;55.33;30.10;;;5.90;99.90;;;;;;10488614;28;20265;-88
2023/03/02 23:22:19;;;;;;;28.20;14.97;;;5.20;99.90;;;;;;10489949;28;20744;-88
2023/03/02 23:27:23;;;;;;;28.77;16.00;;;6.00;99.90;;;;;;10489894;28;20613;-87
2023/03/02 23:32:25;;;;;;;24.37;13.93;;;6.80;99.90;;;;;;10489248;28;20233;-88
2023/03/02 23:37:28;;;;;;;37.67;18.43;;;6.80;99.90;;;;;;10489767;28;21066;-88
2023/03/02 23:42:31;;;;;;;39.67;22.03;;;5.40;99.90;;;;;;10489687;28;20293;-88
2023/03/02 23:47:33;;;;;;;45.80;23.73;;;6.50;99.90;;;;;;10488550;28;20648;-88
2023/03/02 23:52:37;;;;;;;41.53;19.50;;;6.80;99.90;;;;;;10488578;28;21012;-88
2023/03/02 23:57:40;;;;;;;47.00;27.50;;;6.30;99.90;;;;;;10451345;28;20295;-88
